sensor_id;sensor_type;location;lat;lon;timestamp;P1;durP1;ratioP1;P2;durP2;ratioP2
26578;SDS011;14227;47.674;19.320;2023-06-14T00:01:35;30.50;;;16.15;;
26578;SDS011;14227;47.674;19.320;2023-06-14T00:04:03;42.90;;;17.17;;
26578;SDS011;14227;47.674;19.320;2023-06-14T00:06:33;33.88;;;15.50;;
26578;SDS011;14227;47.674;19.320;2023-06-14T00:08:59;39.25;;;17.63;;
26578;SDS011;14227;47.674;19.320;2023-06-14T00:11:25;37.00;;;16.85;;
26578;SDS011;14227;47.674;19.320;2023-06-14T00:13:52;35.38;;;16.52;;
26578;SDS011;14227;47.674;19.320;2023-06-14T00:16:18;39.67;;;18.05;;
26578;SDS011;14227;47.674;19.320;2023-06-14T00:18:44;42.85;;;19.15;;
26578;SDS011;14227;47.674;19.320;2023-06-14T00:21:11;37.22;;;17.25;;
26578;SDS011;14227;47.674;19.320;2023-06-14T00:23:38;33.47;;;15.52;;
26578;SDS011;14227;47.674;19.320;2023-06-14T00:26:05;38.38;;;17.92;;
26578;SDS011;14227;47.674;19.320;2023-06-14T00:28:31;34.67;;;17.38;;
26578;SDS011;14227;47.674;19.320;2023-06-14T00:30:57;46.28;;;18.73;;
26578;SDS011;14227;47.674;19.320;2023-06-14T00:33:23;50.63;;;20.33;;
26578;SDS011;14227;47.674;19.320;2023-06-14T00:36:10;35.47;;;17.80;;
26578;SDS011;14227;47.674;19.320;2023-06-14T00:39:15;40.30;;;18.55;;
26578;SDS011;14227;47.674;19.320;2023-06-14T04:02:14;55.08;;;22.92;;
26578;SDS011;14227;47.674;19.320;2023-06-14T04:05:30;48.25;;;21.67;;
26578;SDS011;14227;47.674;19.320;2023-06-14T04:08:15;46.25;;;21.65;;
26578;SDS011;14227;47.674;19.320;2023-06-14T04:11:23;46.53;;;22.23;;
26578;SDS011;14227;47.674;19.320;2023-06-14T04:13:51;48.42;;;22.55;;
26578;SDS011;14227;47.674;19.320;2023-06-14T04:16:18;48.20;;;21.33;;
26578;SDS011;14227;47.674;19.320;2023-06-14T04:18:44;50.50;;;21.40;;
26578;SDS011;14227;47.674;19.320;2023-06-14T04:21:11;51.50;;;24.13;;
26578;SDS011;14227;47.674;19.320;2023-06-14T04:23:37;47.15;;;22.33;;
26578;SDS011;14227;47.674;19.320;2023-06-14T04:26:03;43.25;;;21.13;;
26578;SDS011;14227;47.674;19.320;2023-06-14T04:28:29;39.55;;;19.48;;
26578;SDS011;14227;47.674;19.320;2023-06-14T04:30:55;39.38;;;20.50;;
26578;SDS011;14227;47.674;19.320;2023-06-14T04:33:21;42.85;;;20.63;;
26578;SDS011;14227;47.674;19.320;2023-06-14T04:35:50;45.75;;;19.63;;
26578;SDS011;14227;47.674;19.320;2023-06-14T04:38:18;39.63;;;19.92;;
26578;SDS011;14227;47.674;19.320;2023-06-14T04:40:49;36.35;;;18.27;;
26578;SDS011;14227;47.674;19.320;2023-06-14T04:43:17;37.20;;;18.15;;
26578;SDS011;14227;47.674;19.320;2023-06-14T04:45:50;38.50;;;17.50;;
26578;SDS011;14227;47.674;19.320;2023-06-14T04:48:17;34.88;;;15.98;;
26578;SDS011;14227;47.674;19.320;2023-06-14T04:50:44;33.20;;;16.50;;
26578;SDS011;14227;47.674;19.320;2023-06-14T04:53:10;36.85;;;15.95;;
26578;SDS011;14227;47.674;19.320;2023-06-14T04:55:36;26.17;;;13.88;;
26578;SDS011;14227;47.674;19.320;2023-06-14T04:58:02;25.98;;;14.45;;
26578;SDS011;14227;47.674;19.320;2023-06-14T05:00:28;26.27;;;13.60;;
26578;SDS011;14227;47.674;19.320;2023-06-14T05:02:55;24.05;;;13.27;;
26578;SDS011;14227;47.674;19.320;2023-06-14T05:05:22;23.73;;;14.55;;
26578;SDS011;14227;47.674;19.320;2023-06-14T05:07:49;21.52;;;12.00;;
26578;SDS011;14227;47.674;19.320;2023-06-14T05:10:15;21.77;;;11.43;;
26578;SDS011;14227;47.674;19.320;2023-06-14T05:12:40;19.35;;;11.75;;
26578;SDS011;14227;47.674;19.320;2023-06-14T05:15:08;22.77;;;11.80;;
26578;SDS011;14227;47.674;19.320;2023-06-14T05:17:35;16.65;;;10.13;;
26578;SDS011;14227;47.674;19.320;2023-06-14T05:20:01;21.00;;;10.65;;
26578;SDS011;14227;47.674;19.320;2023-06-14T05:22:28;18.88;;;10.82;;
26578;SDS011;14227;47.674;19.320;2023-06-14T05:24:54;17.42;;;10.27;;
26578;SDS011;14227;47.674;19.320;2023-06-14T05:27:19;21.00;;;11.20;;
26578;SDS011;14227;47.674;19.320;2023-06-14T05:29:45;17.95;;;10.30;;
26578;SDS011;14227;47.674;19.320;2023-06-14T05:32:11;17.05;;;10.00;;
26578;SDS011;14227;47.674;19.320;2023-06-14T05:34:36;15.88;;;9.55;;
26578;SDS011;14227;47.674;19.320;2023-06-14T05:37:02;13.65;;;9.70;;
26578;SDS011;14227;47.674;19.320;2023-06-14T05:39:29;14.82;;;8.00;;
26578;SDS011;14227;47.674;19.320;2023-06-14T05:41:55;15.95;;;8.82;;
26578;SDS011;14227;47.674;19.320;2023-06-14T05:44:20;17.83;;;9.68;;
26578;SDS011;14227;47.674;19.320;2023-06-14T05:46:46;14.70;;;8.35;;
26578;SDS011;14227;47.674;19.320;2023-06-14T05:49:12;13.63;;;8.85;;
26578;SDS011;14227;47.674;19.320;2023-06-14T05:51:37;11.82;;;8.23;;
26578;SDS011;14227;47.674;19.320;2023-06-14T05:54:03;12.15;;;7.82;;
26578;SDS011;14227;47.674;19.320;2023-06-14T05:56:29;11.32;;;7.20;;
26578;SDS011;14227;47.674;19.320;2023-06-14T05:58:55;11.77;;;8.02;;
26578;SDS011;14227;47.674;19.320;2023-06-14T06:01:20;10.65;;;7.50;;
26578;SDS011;14227;47.674;19.320;2023-06-14T06:03:46;10.15;;;7.03;;
26578;SDS011;14227;47.674;19.320;2023-06-14T06:06:12;12.38;;;7.30;;
26578;SDS011;14227;47.674;19.320;2023-06-14T06:08:39;9.68;;;7.18;;
26578;SDS011;14227;47.674;19.320;2023-06-14T06:11:05;11.80;;;7.60;;
26578;SDS011;14227;47.674;19.320;2023-06-14T06:13:31;9.57;;;6.60;;
26578;SDS011;14227;47.674;19.320;2023-06-14T06:15:57;10.68;;;7.03;;
26578;SDS011;14227;47.674;19.320;2023-06-14T06:18:23;8.52;;;6.10;;
26578;SDS011;14227;47.674;19.320;2023-06-14T06:20:49;7.20;;;6.28;;
26578;SDS011;14227;47.674;19.320;2023-06-14T06:23:14;11.43;;;6.38;;
26578;SDS011;14227;47.674;19.320;2023-06-14T06:25:40;8.30;;;6.32;;
26578;SDS011;14227;47.674;19.320;2023-06-14T06:28:06;9.30;;;6.20;;
26578;SDS011;14227;47.674;19.320;2023-06-14T06:30:32;8.75;;;5.82;;
26578;SDS011;14227;47.674;19.320;2023-06-14T06:32:57;7.28;;;5.65;;
26578;SDS011;14227;47.674;19.320;2023-06-14T06:35:24;6.78;;;5.10;;
26578;SDS011;14227;47.674;19.320;2023-06-14T06:37:49;7.57;;;5.60;;
26578;SDS011;14227;47.674;19.320;2023-06-14T06:40:15;8.13;;;5.78;;
26578;SDS011;14227;47.674;19.320;2023-06-14T06:42:42;8.55;;;6.03;;
26578;SDS011;14227;47.674;19.320;2023-06-14T06:45:08;5.93;;;5.22;;
26578;SDS011;14227;47.674;19.320;2023-06-14T06:47:34;6.55;;;5.30;;
26578;SDS011;14227;47.674;19.320;2023-06-14T06:50:00;7.65;;;5.45;;
26578;SDS011;14227;47.674;19.320;2023-06-14T06:52:26;8.27;;;5.60;;
26578;SDS011;14227;47.674;19.320;2023-06-14T06:54:52;6.00;;;5.03;;
26578;SDS011;14227;47.674;19.320;2023-06-14T06:57:20;7.50;;;5.28;;
26578;SDS011;14227;47.674;19.320;2023-06-14T06:59:47;8.30;;;6.13;;
26578;SDS011;14227;47.674;19.320;2023-06-14T07:02:14;8.60;;;5.47;;
26578;SDS011;14227;47.674;19.320;2023-06-14T07:04:39;6.40;;;4.93;;
26578;SDS011;14227;47.674;19.320;2023-06-14T07:07:06;8.20;;;4.90;;
26578;SDS011;14227;47.674;19.320;2023-06-14T07:09:31;8.75;;;4.78;;
26578;SDS011;14227;47.674;19.320;2023-06-14T07:11:57;9.18;;;4.63;;
26578;SDS011;14227;47.674;19.320;2023-06-14T07:14:23;5.35;;;4.20;;
26578;SDS011;14227;47.674;19.320;2023-06-14T07:16:49;7.15;;;5.38;;
26578;SDS011;14227;47.674;19.320;2023-06-14T07:19:14;9.35;;;4.70;;
26578;SDS011;14227;47.674;19.320;2023-06-14T07:21:40;7.40;;;4.80;;
26578;SDS011;14227;47.674;19.320;2023-06-14T07:24:06;6.63;;;4.30;;
26578;SDS011;14227;47.674;19.320;2023-06-14T07:26:33;7.07;;;4.13;;
26578;SDS011;14227;47.674;19.320;2023-06-14T07:28:59;7.35;;;4.35;;
26578;SDS011;14227;47.674;19.320;2023-06-14T07:31:25;9.32;;;4.18;;
26578;SDS011;14227;47.674;19.320;2023-06-14T07:33:51;4.97;;;3.88;;
26578;SDS011;14227;47.674;19.320;2023-06-14T07:36:17;5.57;;;4.30;;
26578;SDS011;14227;47.674;19.320;2023-06-14T07:38:43;6.70;;;4.45;;
26578;SDS011;14227;47.674;19.320;2023-06-14T07:41:09;5.80;;;4.32;;
26578;SDS011;14227;47.674;19.320;2023-06-14T07:43:34;5.45;;;4.35;;
26578;SDS011;14227;47.674;19.320;2023-06-14T07:46:00;12.88;;;4.22;;
26578;SDS011;14227;47.674;19.320;2023-06-14T07:48:27;7.47;;;4.78;;
26578;SDS011;14227;47.674;19.320;2023-06-14T07:50:53;4.82;;;4.22;;
26578;SDS011;14227;47.674;19.320;2023-06-14T07:53:19;10.15;;;4.68;;
26578;SDS011;14227;47.674;19.320;2023-06-14T07:55:44;4.95;;;4.10;;
26578;SDS011;14227;47.674;19.320;2023-06-14T07:58:12;7.15;;;5.20;;
26578;SDS011;14227;47.674;19.320;2023-06-14T08:00:38;6.13;;;4.13;;
26578;SDS011;14227;47.674;19.320;2023-06-14T08:03:04;7.28;;;4.57;;
26578;SDS011;14227;47.674;19.320;2023-06-14T08:05:29;7.72;;;4.85;;
26578;SDS011;14227;47.674;19.320;2023-06-14T08:07:55;5.03;;;3.92;;
26578;SDS011;14227;47.674;19.320;2023-06-14T08:10:22;4.60;;;3.58;;
26578;SDS011;14227;47.674;19.320;2023-06-14T08:12:48;3.67;;;3.38;;
26578;SDS011;14227;47.674;19.320;2023-06-14T08:15:15;6.00;;;3.60;;
26578;SDS011;14227;47.674;19.320;2023-06-14T08:17:44;6.45;;;3.40;;
26578;SDS011;14227;47.674;19.320;2023-06-14T08:20:10;4.85;;;3.97;;
26578;SDS011;14227;47.674;19.320;2023-06-14T08:22:37;4.85;;;3.88;;
26578;SDS011;14227;47.674;19.320;2023-06-14T08:25:03;6.18;;;3.83;;
26578;SDS011;14227;47.674;19.320;2023-06-14T08:27:30;7.47;;;3.72;;
26578;SDS011;14227;47.674;19.320;2023-06-14T08:29:55;5.78;;;3.97;;
26578;SDS011;14227;47.674;19.320;2023-06-14T08:32:21;8.80;;;4.35;;
26578;SDS011;14227;47.674;19.320;2023-06-14T08:34:47;5.70;;;3.50;;
26578;SDS011;14227;47.674;19.320;2023-06-14T08:37:13;9.23;;;3.80;;
26578;SDS011;14227;47.674;19.320;2023-06-14T08:39:39;8.43;;;3.97;;
26578;SDS011;14227;47.674;19.320;2023-06-14T08:42:05;4.30;;;3.80;;
26578;SDS011;14227;47.674;19.320;2023-06-14T08:44:32;6.18;;;4.00;;
26578;SDS011;14227;47.674;19.320;2023-06-14T08:47:02;7.60;;;3.88;;
26578;SDS011;14227;47.674;19.320;2023-06-14T08:49:31;6.90;;;4.47;;
26578;SDS011;14227;47.674;19.320;2023-06-14T08:51:57;8.65;;;4.00;;
26578;SDS011;14227;47.674;19.320;2023-06-14T08:54:27;8.90;;;3.80;;
26578;SDS011;14227;47.674;19.320;2023-06-14T08:56:57;7.78;;;4.05;;
26578;SDS011;14227;47.674;19.320;2023-06-14T08:59:24;5.20;;;4.22;;
26578;SDS011;14227;47.674;19.320;2023-06-14T09:01:51;5.03;;;3.95;;
26578;SDS011;14227;47.674;19.320;2023-06-14T09:04:19;6.32;;;4.07;;
26578;SDS011;14227;47.674;19.320;2023-06-14T09:06:47;8.82;;;3.92;;
26578;SDS011;14227;47.674;19.320;2023-06-14T09:09:19;5.55;;;3.95;;
26578;SDS011;14227;47.674;19.320;2023-06-14T09:11:49;6.10;;;4.30;;
26578;SDS011;14227;47.674;19.320;2023-06-14T09:14:15;8.35;;;4.60;;
26578;SDS011;14227;47.674;19.320;2023-06-14T09:16:41;9.45;;;4.25;;
26578;SDS011;14227;47.674;19.320;2023-06-14T09:19:07;5.07;;;3.90;;
26578;SDS011;14227;47.674;19.320;2023-06-14T09:21:36;6.05;;;3.72;;
26578;SDS011;14227;47.674;19.320;2023-06-14T09:24:02;6.65;;;3.78;;
26578;SDS011;14227;47.674;19.320;2023-06-14T09:26:29;5.22;;;3.90;;
26578;SDS011;14227;47.674;19.320;2023-06-14T09:28:55;9.27;;;3.67;;
26578;SDS011;14227;47.674;19.320;2023-06-14T09:31:21;9.15;;;4.03;;
26578;SDS011;14227;47.674;19.320;2023-06-14T09:33:50;5.45;;;4.03;;
26578;SDS011;14227;47.674;19.320;2023-06-14T09:36:21;6.05;;;3.35;;
26578;SDS011;14227;47.674;19.320;2023-06-14T09:38:57;9.05;;;4.00;;
26578;SDS011;14227;47.674;19.320;2023-06-14T09:41:30;14.98;;;4.10;;
26578;SDS011;14227;47.674;19.320;2023-06-14T09:44:04;8.18;;;3.60;;
26578;SDS011;14227;47.674;19.320;2023-06-14T09:46:32;8.63;;;3.70;;
26578;SDS011;14227;47.674;19.320;2023-06-14T09:48:59;7.85;;;3.50;;
26578;SDS011;14227;47.674;19.320;2023-06-14T09:51:26;11.10;;;3.95;;
26578;SDS011;14227;47.674;19.320;2023-06-14T09:53:55;8.60;;;3.58;;
26578;SDS011;14227;47.674;19.320;2023-06-14T09:56:29;11.60;;;3.17;;
26578;SDS011;14227;47.674;19.320;2023-06-14T09:59:03;3.90;;;3.45;;
26578;SDS011;14227;47.674;19.320;2023-06-14T10:01:30;4.22;;;3.28;;
26578;SDS011;14227;47.674;19.320;2023-06-14T10:04:03;7.50;;;3.58;;
26578;SDS011;14227;47.674;19.320;2023-06-14T10:06:30;5.25;;;2.58;;
26578;SDS011;14227;47.674;19.320;2023-06-14T10:08:57;4.75;;;2.47;;
26578;SDS011;14227;47.674;19.320;2023-06-14T10:11:28;5.88;;;3.95;;
26578;SDS011;14227;47.674;19.320;2023-06-14T10:13:54;5.53;;;3.45;;
26578;SDS011;14227;47.674;19.320;2023-06-14T10:19:25;11.50;;;3.53;;
26578;SDS011;14227;47.674;19.320;2023-06-14T10:24:33;7.15;;;4.22;;
26578;SDS011;14227;47.674;19.320;2023-06-14T10:27:07;7.57;;;3.80;;
26578;SDS011;14227;47.674;19.320;2023-06-14T10:32:27;7.18;;;4.10;;
26578;SDS011;14227;47.674;19.320;2023-06-14T10:35:00;8.32;;;3.88;;
26578;SDS011;14227;47.674;19.320;2023-06-14T10:37:30;5.85;;;3.72;;
26578;SDS011;14227;47.674;19.320;2023-06-14T10:39:56;7.72;;;3.55;;
26578;SDS011;14227;47.674;19.320;2023-06-14T10:42:23;7.40;;;3.78;;
26578;SDS011;14227;47.674;19.320;2023-06-14T10:44:56;5.45;;;3.40;;
26578;SDS011;14227;47.674;19.320;2023-06-14T10:50:09;5.85;;;4.10;;
26578;SDS011;14227;47.674;19.320;2023-06-14T10:52:38;7.97;;;3.30;;
26578;SDS011;14227;47.674;19.320;2023-06-14T10:55:10;9.13;;;3.80;;
26578;SDS011;14227;47.674;19.320;2023-06-14T10:57:44;3.40;;;3.10;;
26578;SDS011;14227;47.674;19.320;2023-06-14T11:00:11;6.40;;;3.60;;
26578;SDS011;14227;47.674;19.320;2023-06-14T11:02:51;7.07;;;3.58;;
26578;SDS011;14227;47.674;19.320;2023-06-14T11:08:13;11.05;;;4.35;;
26578;SDS011;14227;47.674;19.320;2023-06-14T11:10:46;7.45;;;4.65;;
26578;SDS011;14227;47.674;19.320;2023-06-14T11:13:13;9.98;;;4.60;;
26578;SDS011;14227;47.674;19.320;2023-06-14T11:15:45;6.15;;;4.45;;
26578;SDS011;14227;47.674;19.320;2023-06-14T11:18:14;6.90;;;3.83;;
26578;SDS011;14227;47.674;19.320;2023-06-14T11:20:41;6.63;;;3.83;;
26578;SDS011;14227;47.674;19.320;2023-06-14T11:23:07;7.80;;;3.85;;
26578;SDS011;14227;47.674;19.320;2023-06-14T11:25:33;4.65;;;3.75;;
26578;SDS011;14227;47.674;19.320;2023-06-14T11:27:58;6.95;;;3.22;;
26578;SDS011;14227;47.674;19.320;2023-06-14T11:30:25;11.25;;;3.17;;
26578;SDS011;14227;47.674;19.320;2023-06-14T11:32:52;5.63;;;3.25;;
26578;SDS011;14227;47.674;19.320;2023-06-14T11:35:19;7.45;;;3.63;;
26578;SDS011;14227;47.674;19.320;2023-06-14T11:37:48;8.57;;;3.55;;
26578;SDS011;14227;47.674;19.320;2023-06-14T11:40:14;12.13;;;4.20;;
26578;SDS011;14227;47.674;19.320;2023-06-14T11:42:41;14.13;;;3.70;;
26578;SDS011;14227;47.674;19.320;2023-06-14T11:45:07;12.27;;;3.58;;
26578;SDS011;14227;47.674;19.320;2023-06-14T11:47:40;7.93;;;4.00;;
26578;SDS011;14227;47.674;19.320;2023-06-14T11:50:09;8.65;;;3.40;;
26578;SDS011;14227;47.674;19.320;2023-06-14T11:52:36;18.10;;;4.00;;
26578;SDS011;14227;47.674;19.320;2023-06-14T11:55:02;8.27;;;4.05;;
26578;SDS011;14227;47.674;19.320;2023-06-14T11:57:30;7.20;;;3.95;;
26578;SDS011;14227;47.674;19.320;2023-06-14T12:00:00;6.85;;;4.25;;
26578;SDS011;14227;47.674;19.320;2023-06-14T12:02:31;11.77;;;4.90;;
26578;SDS011;14227;47.674;19.320;2023-06-14T12:05:03;6.05;;;4.30;;
26578;SDS011;14227;47.674;19.320;2023-06-14T12:07:30;5.72;;;4.18;;
26578;SDS011;14227;47.674;19.320;2023-06-14T12:12:22;10.20;;;4.50;;
26578;SDS011;14227;47.674;19.320;2023-06-14T12:14:50;6.18;;;4.22;;
26578;SDS011;14227;47.674;19.320;2023-06-14T12:17:17;8.75;;;3.80;;
26578;SDS011;14227;47.674;19.320;2023-06-14T12:19:43;8.13;;;4.60;;
26578;SDS011;14227;47.674;19.320;2023-06-14T12:22:10;6.80;;;4.47;;
26578;SDS011;14227;47.674;19.320;2023-06-14T12:24:36;6.00;;;4.03;;
26578;SDS011;14227;47.674;19.320;2023-06-14T12:27:03;9.85;;;4.45;;
26578;SDS011;14227;47.674;19.320;2023-06-14T12:29:29;6.28;;;3.88;;
26578;SDS011;14227;47.674;19.320;2023-06-14T12:31:56;6.93;;;4.30;;
26578;SDS011;14227;47.674;19.320;2023-06-14T12:34:25;9.35;;;4.10;;
26578;SDS011;14227;47.674;19.320;2023-06-14T12:36:52;5.82;;;4.18;;
26578;SDS011;14227;47.674;19.320;2023-06-14T12:39:19;7.10;;;4.30;;
26578;SDS011;14227;47.674;19.320;2023-06-14T12:41:45;10.05;;;4.30;;
26578;SDS011;14227;47.674;19.320;2023-06-14T12:44:12;8.35;;;4.28;;
26578;SDS011;14227;47.674;19.320;2023-06-14T12:46:38;8.20;;;4.60;;
26578;SDS011;14227;47.674;19.320;2023-06-14T12:49:05;6.32;;;3.83;;
26578;SDS011;14227;47.674;19.320;2023-06-14T12:51:32;8.30;;;4.22;;
26578;SDS011;14227;47.674;19.320;2023-06-14T12:53:58;5.50;;;3.15;;
26578;SDS011;14227;47.674;19.320;2023-06-14T12:56:24;7.65;;;3.83;;
26578;SDS011;14227;47.674;19.320;2023-06-14T12:58:51;8.90;;;3.85;;
26578;SDS011;14227;47.674;19.320;2023-06-14T13:01:17;7.53;;;3.70;;
26578;SDS011;14227;47.674;19.320;2023-06-14T13:03:43;6.38;;;3.25;;
26578;SDS011;14227;47.674;19.320;2023-06-14T13:06:09;6.85;;;3.55;;
26578;SDS011;14227;47.674;19.320;2023-06-14T13:08:35;5.25;;;3.70;;
26578;SDS011;14227;47.674;19.320;2023-06-14T13:11:01;11.07;;;4.00;;
26578;SDS011;14227;47.674;19.320;2023-06-14T13:13:26;6.60;;;3.60;;
26578;SDS011;14227;47.674;19.320;2023-06-14T13:15:52;4.93;;;3.33;;
26578;SDS011;14227;47.674;19.320;2023-06-14T13:18:18;4.38;;;3.00;;
26578;SDS011;14227;47.674;19.320;2023-06-14T13:20:45;3.60;;;3.13;;
26578;SDS011;14227;47.674;19.320;2023-06-14T13:23:11;4.55;;;2.80;;
26578;SDS011;14227;47.674;19.320;2023-06-14T13:25:37;7.45;;;3.40;;
26578;SDS011;14227;47.674;19.320;2023-06-14T13:28:03;7.38;;;3.28;;
26578;SDS011;14227;47.674;19.320;2023-06-14T13:30:29;4.45;;;3.45;;
26578;SDS011;14227;47.674;19.320;2023-06-14T13:32:55;7.78;;;3.10;;
26578;SDS011;14227;47.674;19.320;2023-06-14T13:35:22;5.90;;;2.88;;
26578;SDS011;14227;47.674;19.320;2023-06-14T13:37:49;8.18;;;3.30;;
26578;SDS011;14227;47.674;19.320;2023-06-14T13:40:14;6.85;;;3.17;;
26578;SDS011;14227;47.674;19.320;2023-06-14T13:42:40;6.05;;;2.80;;
26578;SDS011;14227;47.674;19.320;2023-06-14T13:45:07;8.63;;;4.13;;
26578;SDS011;14227;47.674;19.320;2023-06-14T13:47:33;5.80;;;3.72;;
26578;SDS011;14227;47.674;19.320;2023-06-14T13:49:59;13.35;;;3.80;;
26578;SDS011;14227;47.674;19.320;2023-06-14T13:52:25;9.73;;;3.70;;
26578;SDS011;14227;47.674;19.320;2023-06-14T13:54:52;7.10;;;3.10;;
26578;SDS011;14227;47.674;19.320;2023-06-14T13:57:17;7.82;;;2.75;;
26578;SDS011;14227;47.674;19.320;2023-06-14T13:59:43;6.18;;;3.33;;
26578;SDS011;14227;47.674;19.320;2023-06-14T14:02:10;6.93;;;3.13;;
26578;SDS011;14227;47.674;19.320;2023-06-14T14:04:36;13.70;;;3.78;;
26578;SDS011;14227;47.674;19.320;2023-06-14T14:07:03;7.97;;;3.40;;
26578;SDS011;14227;47.674;19.320;2023-06-14T14:09:29;11.45;;;3.28;;
26578;SDS011;14227;47.674;19.320;2023-06-14T14:11:55;4.35;;;3.15;;
26578;SDS011;14227;47.674;19.320;2023-06-14T14:14:21;6.38;;;3.00;;
26578;SDS011;14227;47.674;19.320;2023-06-14T14:16:48;4.90;;;3.15;;
26578;SDS011;14227;47.674;19.320;2023-06-14T14:19:16;6.28;;;2.88;;
26578;SDS011;14227;47.674;19.320;2023-06-14T14:21:44;6.15;;;3.28;;
26578;SDS011;14227;47.674;19.320;2023-06-14T14:24:10;4.28;;;2.80;;
26578;SDS011;14227;47.674;19.320;2023-06-14T14:26:36;6.85;;;3.20;;
26578;SDS011;14227;47.674;19.320;2023-06-14T14:29:01;5.40;;;2.83;;
26578;SDS011;14227;47.674;19.320;2023-06-14T14:31:27;5.38;;;3.05;;
26578;SDS011;14227;47.674;19.320;2023-06-14T14:33:53;7.47;;;2.92;;
26578;SDS011;14227;47.674;19.320;2023-06-14T14:36:19;4.85;;;2.83;;
26578;SDS011;14227;47.674;19.320;2023-06-14T14:38:45;4.40;;;3.08;;
26578;SDS011;14227;47.674;19.320;2023-06-14T14:41:12;4.05;;;2.72;;
26578;SDS011;14227;47.674;19.320;2023-06-14T14:43:37;4.60;;;2.80;;
26578;SDS011;14227;47.674;19.320;2023-06-14T14:46:03;10.13;;;3.10;;
26578;SDS011;14227;47.674;19.320;2023-06-14T14:48:29;10.52;;;3.10;;
26578;SDS011;14227;47.674;19.320;2023-06-14T14:50:55;3.25;;;2.90;;
26578;SDS011;14227;47.674;19.320;2023-06-14T14:53:20;7.82;;;3.17;;
26578;SDS011;14227;47.674;19.320;2023-06-14T14:55:46;9.90;;;3.85;;
26578;SDS011;14227;47.674;19.320;2023-06-14T14:58:13;4.05;;;3.20;;
26578;SDS011;14227;47.674;19.320;2023-06-14T15:00:42;3.90;;;3.00;;
26578;SDS011;14227;47.674;19.320;2023-06-14T15:03:07;21.58;;;3.90;;
26578;SDS011;14227;47.674;19.320;2023-06-14T15:05:33;10.98;;;3.60;;
26578;SDS011;14227;47.674;19.320;2023-06-14T15:07:59;6.15;;;3.20;;
26578;SDS011;14227;47.674;19.320;2023-06-14T15:10:25;9.18;;;3.50;;
26578;SDS011;14227;47.674;19.320;2023-06-14T15:12:50;9.02;;;3.40;;
26578;SDS011;14227;47.674;19.320;2023-06-14T15:15:16;4.82;;;3.22;;
26578;SDS011;14227;47.674;19.320;2023-06-14T15:17:42;8.38;;;2.80;;
26578;SDS011;14227;47.674;19.320;2023-06-14T15:20:08;6.65;;;2.90;;
26578;SDS011;14227;47.674;19.320;2023-06-14T15:22:34;3.90;;;2.80;;
26578;SDS011;14227;47.674;19.320;2023-06-14T15:24:59;5.15;;;2.75;;
26578;SDS011;14227;47.674;19.320;2023-06-14T15:27:25;4.00;;;2.67;;
26578;SDS011;14227;47.674;19.320;2023-06-14T15:29:51;12.32;;;3.00;;
26578;SDS011;14227;47.674;19.320;2023-06-14T15:32:16;4.07;;;2.60;;
26578;SDS011;14227;47.674;19.320;2023-06-14T15:34:42;5.97;;;2.60;;
26578;SDS011;14227;47.674;19.320;2023-06-14T15:37:08;4.20;;;2.72;;
26578;SDS011;14227;47.674;19.320;2023-06-14T15:39:34;4.03;;;2.28;;
26578;SDS011;14227;47.674;19.320;2023-06-14T15:41:59;5.05;;;2.72;;
26578;SDS011;14227;47.674;19.320;2023-06-14T15:44:25;7.35;;;2.20;;
26578;SDS011;14227;47.674;19.320;2023-06-14T15:46:51;6.72;;;2.45;;
26578;SDS011;14227;47.674;19.320;2023-06-14T15:49:17;8.93;;;2.85;;
26578;SDS011;14227;47.674;19.320;2023-06-14T15:51:44;4.60;;;2.70;;
26578;SDS011;14227;47.674;19.320;2023-06-14T15:54:10;6.60;;;2.75;;
26578;SDS011;14227;47.674;19.320;2023-06-14T15:56:36;30.35;;;4.03;;
26578;SDS011;14227;47.674;19.320;2023-06-14T15:59:01;3.55;;;2.70;;
26578;SDS011;14227;47.674;19.320;2023-06-14T16:01:27;4.43;;;2.35;;
26578;SDS011;14227;47.674;19.320;2023-06-14T16:03:53;3.20;;;2.67;;
26578;SDS011;14227;47.674;19.320;2023-06-14T16:06:21;10.40;;;2.85;;
26578;SDS011;14227;47.674;19.320;2023-06-14T16:08:47;5.63;;;2.95;;
26578;SDS011;14227;47.674;19.320;2023-06-14T16:11:13;7.10;;;2.58;;
26578;SDS011;14227;47.674;19.320;2023-06-14T16:13:40;5.78;;;2.78;;
26578;SDS011;14227;47.674;19.320;2023-06-14T16:16:07;10.32;;;2.63;;
26578;SDS011;14227;47.674;19.320;2023-06-14T16:18:36;4.07;;;2.65;;
26578;SDS011;14227;47.674;19.320;2023-06-14T16:21:02;9.35;;;3.00;;
26578;SDS011;14227;47.674;19.320;2023-06-14T16:23:31;6.57;;;2.80;;
26578;SDS011;14227;47.674;19.320;2023-06-14T16:25:59;5.18;;;2.65;;
26578;SDS011;14227;47.674;19.320;2023-06-14T16:28:25;5.00;;;2.85;;
26578;SDS011;14227;47.674;19.320;2023-06-14T16:30:51;6.38;;;3.10;;
26578;SDS011;14227;47.674;19.320;2023-06-14T16:33:17;4.47;;;2.88;;
26578;SDS011;14227;47.674;19.320;2023-06-14T16:35:43;9.13;;;2.70;;
26578;SDS011;14227;47.674;19.320;2023-06-14T16:38:08;7.35;;;3.00;;
26578;SDS011;14227;47.674;19.320;2023-06-14T16:40:34;6.55;;;3.00;;
26578;SDS011;14227;47.674;19.320;2023-06-14T16:43:00;9.18;;;3.17;;
26578;SDS011;14227;47.674;19.320;2023-06-14T16:45:26;8.45;;;2.80;;
26578;SDS011;14227;47.674;19.320;2023-06-14T16:47:52;6.95;;;3.13;;
26578;SDS011;14227;47.674;19.320;2023-06-14T16:50:17;5.88;;;3.08;;
26578;SDS011;14227;47.674;19.320;2023-06-14T16:52:43;6.72;;;3.55;;
26578;SDS011;14227;47.674;19.320;2023-06-14T16:55:09;5.30;;;2.95;;
26578;SDS011;14227;47.674;19.320;2023-06-14T16:57:34;6.43;;;3.42;;
26578;SDS011;14227;47.674;19.320;2023-06-14T17:00:00;13.82;;;3.78;;
26578;SDS011;14227;47.674;19.320;2023-06-14T17:02:26;7.25;;;3.67;;
26578;SDS011;14227;47.674;19.320;2023-06-14T17:04:52;14.88;;;3.88;;
26578;SDS011;14227;47.674;19.320;2023-06-14T17:07:18;6.03;;;3.83;;
26578;SDS011;14227;47.674;19.320;2023-06-14T17:09:45;10.10;;;3.53;;
26578;SDS011;14227;47.674;19.320;2023-06-14T17:12:11;7.68;;;3.28;;
26578;SDS011;14227;47.674;19.320;2023-06-14T17:14:37;9.23;;;3.75;;
26578;SDS011;14227;47.674;19.320;2023-06-14T17:17:02;10.48;;;3.25;;
26578;SDS011;14227;47.674;19.320;2023-06-14T17:19:28;6.43;;;3.00;;
26578;SDS011;14227;47.674;19.320;2023-06-14T17:21:54;6.13;;;3.20;;
26578;SDS011;14227;47.674;19.320;2023-06-14T17:24:20;8.23;;;3.25;;
26578;SDS011;14227;47.674;19.320;2023-06-14T17:26:45;5.35;;;3.33;;
26578;SDS011;14227;47.674;19.320;2023-06-14T17:29:11;5.28;;;3.30;;
26578;SDS011;14227;47.674;19.320;2023-06-14T17:31:37;4.85;;;3.28;;
26578;SDS011;14227;47.674;19.320;2023-06-14T17:34:03;7.43;;;3.30;;
26578;SDS011;14227;47.674;19.320;2023-06-14T17:36:29;14.30;;;3.47;;
26578;SDS011;14227;47.674;19.320;2023-06-14T17:38:54;21.60;;;3.72;;
26578;SDS011;14227;47.674;19.320;2023-06-14T17:41:20;19.83;;;4.68;;
26578;SDS011;14227;47.674;19.320;2023-06-14T17:43:48;31.40;;;4.80;;
26578;SDS011;14227;47.674;19.320;2023-06-14T17:46:14;11.40;;;3.60;;
26578;SDS011;14227;47.674;19.320;2023-06-14T17:48:40;14.20;;;3.70;;
26578;SDS011;14227;47.674;19.320;2023-06-14T17:51:06;11.05;;;3.88;;
26578;SDS011;14227;47.674;19.320;2023-06-14T17:53:32;9.13;;;3.42;;
26578;SDS011;14227;47.674;19.320;2023-06-14T17:55:58;13.30;;;3.92;;
26578;SDS011;14227;47.674;19.320;2023-06-14T17:58:25;7.55;;;3.58;;
26578;SDS011;14227;47.674;19.320;2023-06-14T18:00:51;17.33;;;3.50;;
26578;SDS011;14227;47.674;19.320;2023-06-14T18:03:17;16.80;;;4.18;;
26578;SDS011;14227;47.674;19.320;2023-06-14T18:05:43;13.10;;;3.65;;